createdAt,value
2024-05-09T00:04:07.942Z,13.54
2024-05-09T00:09:12.005Z,13.56
2024-05-09T00:14:15.740Z,13.60
2024-05-09T00:19:19.700Z,13.57
2024-05-09T00:24:23.475Z,13.53
2024-05-09T00:29:27.416Z,13.58
2024-05-09T00:34:31.635Z,13.58
2024-05-09T00:39:35.315Z,13.64
2024-05-09T00:44:39.093Z,13.61
2024-05-09T00:49:42.979Z,13.66
2024-05-09T00:54:47.065Z,13.62
2024-05-09T00:59:51.752Z,13.65
2024-05-09T01:04:55.904Z,13.58
2024-05-09T01:09:59.648Z,13.56
2024-05-09T01:15:03.464Z,13.56
2024-05-09T01:20:10.886Z,13.53
2024-05-09T01:25:22.547Z,13.48
2024-05-09T01:30:33.348Z,13.48
2024-05-09T01:35:41.869Z,13.47
2024-05-09T01:40:48.362Z,13.45
2024-05-09T01:45:51.841Z,13.44
2024-05-09T01:50:55.536Z,13.42
2024-05-09T01:55:59.330Z,13.36
2024-05-09T02:01:03.163Z,13.32
2024-05-09T02:06:08.305Z,13.26
2024-05-09T02:11:12.452Z,13.21
2024-05-09T02:16:21.685Z,13.15
2024-05-09T02:21:30.722Z,13.14
2024-05-09T02:26:34.525Z,13.03
2024-05-09T02:31:49.993Z,12.94
2024-05-09T02:36:56.231Z,12.80
2024-05-09T02:42:00.339Z,12.74
2024-05-09T02:47:04.800Z,12.77
2024-05-09T02:52:08.619Z,12.70
2024-05-09T02:57:12.198Z,12.65
2024-05-09T03:02:15.774Z,12.52
2024-05-09T03:07:20.315Z,12.54
2024-05-09T03:12:23.922Z,12.42
2024-05-09T03:17:27.708Z,12.44
2024-05-09T03:22:31.619Z,12.40
2024-05-09T03:27:38.185Z,12.38
2024-05-09T03:32:44.297Z,12.36
2024-05-09T03:37:48.082Z,12.29
2024-05-09T03:42:51.782Z,12.30
2024-05-09T03:47:55.762Z,12.35
2024-05-09T03:52:59.688Z,12.34
2024-05-09T03:58:03.840Z,12.35
2024-05-09T04:03:10.527Z,12.45
2024-05-09T04:08:16.260Z,12.55
2024-05-09T04:13:19.935Z,12.57
2024-05-09T04:18:23.704Z,12.72
2024-05-09T04:23:27.509Z,12.84
2024-05-09T04:28:31.204Z,13.04
2024-05-09T04:33:35.190Z,13.17
2024-05-09T04:38:39.067Z,13.27
2024-05-09T04:43:42.820Z,13.38
2024-05-09T04:48:46.718Z,13.37
2024-05-09T04:53:50.346Z,13.46
2024-05-09T04:58:54.051Z,13.46
2024-05-09T05:03:59.256Z,13.45
2024-05-09T05:09:03.398Z,13.52
2024-05-09T05:14:07.463Z,13.47
2024-05-09T05:19:13.500Z,13.46
2024-05-09T05:24:18.687Z,13.51
2024-05-09T05:29:22.465Z,13.62
2024-05-09T05:34:26.230Z,13.70
2024-05-09T05:39:29.937Z,13.77
2024-05-09T05:44:33.653Z,13.88
2024-05-09T05:49:37.648Z,13.95
2024-05-09T05:54:41.494Z,14.01
2024-05-09T05:59:45.230Z,14.10
2024-05-09T06:04:49.299Z,14.24
2024-05-09T06:09:53.188Z,14.24
2024-05-09T06:14:56.958Z,14.32
2024-05-09T06:20:00.632Z,14.40
2024-05-09T06:25:04.947Z,14.49
2024-05-09T06:30:14.409Z,14.56
2024-05-09T06:35:24.310Z,14.55
2024-05-09T06:40:36.347Z,14.79
2024-05-09T06:45:42.667Z,14.80
2024-05-09T06:50:46.570Z,15.02
2024-05-09T06:55:50.407Z,15.15
2024-05-09T07:00:54.174Z,15.34
2024-05-09T07:05:57.875Z,15.44
2024-05-09T07:11:01.747Z,15.58
2024-05-09T07:16:05.469Z,15.82
2024-05-09T07:21:09.328Z,16.10
2024-05-09T07:26:13.408Z,16.35
2024-05-09T07:31:17.320Z,16.58
2024-05-09T07:36:21.084Z,16.73
2024-05-09T07:41:25.356Z,17.00
2024-05-09T07:47:36.880Z,17.38
2024-05-09T07:53:21.629Z,17.83
2024-05-09T07:57:17.449Z,18.13
2024-05-09T08:02:24.341Z,18.39
2024-05-09T08:07:27.854Z,18.38
2024-05-09T08:12:31.860Z,18.52
2024-05-09T08:17:35.575Z,18.59
2024-05-09T08:22:39.295Z,18.59
2024-05-09T08:27:43.062Z,18.76
2024-05-09T08:32:48.333Z,18.85
2024-05-09T08:37:53.586Z,18.96
2024-05-09T08:42:58.136Z,19.14
2024-05-09T08:48:07.664Z,19.30
2024-05-09T08:53:11.609Z,19.36
2024-05-09T08:58:19.926Z,19.47
2024-05-09T09:03:32.974Z,19.53
2024-05-09T09:08:39.587Z,19.54
2024-05-09T09:13:43.362Z,19.88
2024-05-09T09:18:47.394Z,20.24
2024-05-09T09:23:51.246Z,20.48
2024-05-09T09:29:01.942Z,20.56
2024-05-09T09:34:09.233Z,20.55
2024-05-09T09:39:17.425Z,20.29
2024-05-09T09:44:22.290Z,20.29
2024-05-09T09:49:33.410Z,20.42
2024-05-09T09:54:37.153Z,20.55
2024-05-09T09:59:46.804Z,20.61
2024-05-09T10:04:51.520Z,20.58
2024-05-09T10:09:56.499Z,20.62
2024-05-09T10:15:09.106Z,20.63
2024-05-09T10:20:21.324Z,20.64
2024-05-09T10:25:28.616Z,20.67
2024-05-09T10:30:36.140Z,20.65
2024-05-09T10:35:53.833Z,20.69
2024-05-09T10:40:59.075Z,20.82
2024-05-09T10:46:04.180Z,20.91
2024-05-09T10:51:09.025Z,21.10
2024-05-09T10:56:17.114Z,21.21
2024-05-09T11:01:21.378Z,21.37
2024-05-09T11:06:25.900Z,21.48
2024-05-09T11:11:29.782Z,21.62
2024-05-09T11:16:33.470Z,21.71
2024-05-09T11:21:37.184Z,21.85
2024-05-09T11:26:41.045Z,22.01
2024-05-09T11:31:48.576Z,22.12
2024-05-09T11:36:52.448Z,22.27
2024-05-09T11:41:57.400Z,22.27
2024-05-09T11:47:01.042Z,22.25
2024-05-09T11:52:05.195Z,22.43
2024-05-09T11:57:09.627Z,22.54
2024-05-09T12:02:13.613Z,22.67
2024-05-09T12:07:21.579Z,22.84
2024-05-09T12:12:25.286Z,22.97
2024-05-09T12:17:29.062Z,23.02
2024-05-09T12:22:32.819Z,23.08
2024-05-09T12:27:37.369Z,23.23
2024-05-09T12:32:41.213Z,23.54
2024-05-09T12:37:45.009Z,23.49
2024-05-09T12:42:49.655Z,23.62
2024-05-09T12:47:53.546Z,23.87
2024-05-09T12:52:57.320Z,23.84
2024-05-09T12:58:01.359Z,23.84
2024-05-09T13:03:06.389Z,24.04
2024-05-09T13:08:10.442Z,24.25
2024-05-09T13:13:14.720Z,24.90
2024-05-09T13:18:18.645Z,25.05
2024-05-09T13:23:22.310Z,24.94
2024-05-09T13:28:26.743Z,24.97
2024-05-09T13:33:30.661Z,25.23
2024-05-09T13:38:34.511Z,25.67
2024-05-09T13:43:38.893Z,25.46
2024-05-09T13:48:42.626Z,25.57
2024-05-09T13:53:46.166Z,25.53
2024-05-09T13:58:51.275Z,25.40
2024-05-09T14:03:54.990Z,25.43
2024-05-09T14:08:59.028Z,25.62
2024-05-09T14:14:03.179Z,25.92
2024-05-09T14:19:07.181Z,25.58
2024-05-09T14:24:10.775Z,25.49
2024-05-09T14:29:14.528Z,25.50
2024-05-09T14:34:18.368Z,25.26
2024-05-09T14:39:22.236Z,25.52
2024-05-09T14:44:25.729Z,25.63
2024-05-09T14:49:29.443Z,25.38
2024-05-09T14:54:32.978Z,25.32
2024-05-09T14:59:36.788Z,25.37
2024-05-09T15:04:40.738Z,25.60
2024-05-09T15:09:47.006Z,25.73
2024-05-09T15:14:50.570Z,25.45
2024-05-09T15:19:54.404Z,25.27
2024-05-09T15:24:58.150Z,25.44
2024-05-09T15:30:05.607Z,25.92
2024-05-09T15:35:12.250Z,26.16
2024-05-09T15:40:26.019Z,26.04
2024-05-09T15:45:40.268Z,26.09
2024-05-09T15:50:44.910Z,26.08
2024-05-09T15:55:49.137Z,25.73
2024-05-09T16:00:52.997Z,25.79
2024-05-09T16:05:58.552Z,25.73
2024-05-09T16:11:03.023Z,25.62
2024-05-09T16:16:07.226Z,25.47
2024-05-09T16:21:11.101Z,25.53
2024-05-09T16:26:14.907Z,25.46
2024-05-09T16:31:18.644Z,25.45
2024-05-09T16:36:22.348Z,25.40
2024-05-09T16:41:26.704Z,25.34
2024-05-09T16:46:31.429Z,24.99
2024-05-09T16:51:34.942Z,24.44
2024-05-09T16:56:39.016Z,23.91
2024-05-09T17:01:42.782Z,23.40
2024-05-09T17:06:46.842Z,23.02
2024-05-09T17:11:50.781Z,22.74
2024-05-09T17:16:54.481Z,22.39
2024-05-09T17:21:58.267Z,22.01
2024-05-09T17:27:01.916Z,21.64
2024-05-09T17:32:06.796Z,21.29
2024-05-09T17:37:10.885Z,21.02
2024-05-09T17:42:14.806Z,20.51
2024-05-09T17:47:18.698Z,20.09
2024-05-09T17:52:22.386Z,19.45
2024-05-09T17:57:26.820Z,19.12
2024-05-09T18:02:30.832Z,18.65
2024-05-09T18:07:35.309Z,18.25
2024-05-09T18:12:39.183Z,18.07
2024-05-09T18:17:43.059Z,17.81
2024-05-09T18:22:46.918Z,17.56
2024-05-09T18:27:50.855Z,17.30
2024-05-09T18:32:54.886Z,17.26
2024-05-09T18:37:58.833Z,16.96
2024-05-09T18:43:03.472Z,16.85
2024-05-09T18:48:12.167Z,16.65
2024-05-09T18:53:16.266Z,16.33
2024-05-09T18:58:20.569Z,16.23
2024-05-09T19:03:24.462Z,16.03
2024-05-09T19:08:28.644Z,15.87
2024-05-09T19:13:35.707Z,15.83
2024-05-09T19:18:39.787Z,15.67
2024-05-09T19:23:50.510Z,15.48
2024-05-09T19:28:58.130Z,15.44
2024-05-09T19:34:02.649Z,15.24
2024-05-09T19:39:16.533Z,15.29
2024-05-09T19:44:20.484Z,15.05
2024-05-09T19:49:24.466Z,15.00
2024-05-09T19:54:28.681Z,14.91
2024-05-09T19:59:33.217Z,14.88
2024-05-09T20:04:37.124Z,14.66
2024-05-09T20:09:44.181Z,14.59
2024-05-09T20:14:47.977Z,14.52
2024-05-09T20:19:54.723Z,14.51
2024-05-09T20:24:58.534Z,14.32
2024-05-09T20:30:02.393Z,14.28
2024-05-09T20:35:06.455Z,14.15
2024-05-09T20:40:18.190Z,13.96
2024-05-09T20:45:30.362Z,13.92
2024-05-09T20:50:39.317Z,13.71
2024-05-09T20:55:48.352Z,13.62
2024-05-09T21:00:52.514Z,13.49
2024-05-09T21:05:58.586Z,13.21
2024-05-09T21:11:03.436Z,13.24
2024-05-09T21:16:11.103Z,13.08
2024-05-09T21:21:15.479Z,13.04
2024-05-09T21:26:24.158Z,12.94
2024-05-09T21:31:28.159Z,12.77
2024-05-09T21:36:35.395Z,12.74
2024-05-09T21:41:39.291Z,12.53
2024-05-09T21:46:43.582Z,12.55
2024-05-09T21:51:49.802Z,12.48
2024-05-09T21:56:56.750Z,12.29
2024-05-09T22:02:00.530Z,12.21
2024-05-09T22:07:06.260Z,12.19
2024-05-09T22:12:10.091Z,12.02
2024-05-09T22:17:14.076Z,11.91
2024-05-09T22:22:17.631Z,11.84
2024-05-09T22:27:21.236Z,11.76
2024-05-09T22:32:24.929Z,11.62
2024-05-09T22:37:28.721Z,11.65
2024-05-09T22:42:32.307Z,11.59
2024-05-09T22:47:36.087Z,11.40
2024-05-09T22:52:40.058Z,11.48
2024-05-09T22:57:43.756Z,11.40
2024-05-09T23:02:47.534Z,11.30
2024-05-09T23:07:51.323Z,11.36
2024-05-09T23:12:55.713Z,11.33
2024-05-09T23:17:59.547Z,11.35
2024-05-09T23:23:03.478Z,11.30
2024-05-09T23:28:07.898Z,11.16
2024-05-09T23:33:13.449Z,11.29
2024-05-09T23:38:19.527Z,11.25
2024-05-09T23:43:25.718Z,11.14
2024-05-09T23:48:30.727Z,11.17
2024-05-09T23:53:34.284Z,11.08
2024-05-09T23:58:37.675Z,11.17
